Terminal Aerodrome Forecast
Issued by NWS Upton, NY

Home | Current Version | Previous Version | Text Only | Print | Product List | Glossary On
Versions: 1 2 3 4 5 6 7 8 9 10 11 12 13 14 15 16 17 18 19 20 21 22 23 24 25 26 27 28 29 30
172
FTUS41 KOKX 240528
TAFLGA
TAF
KLGA 240528Z 2406/2506 19005KT P6SM BKN250
     FM241000 20007KT P6SM SCT120 BKN200
     FM241400 20013G18KT P6SM OVC080
      TEMPO 2416/2419 6SM -RA BKN040
     FM241900 21013G20KT P6SM BKN040
     FM242300 23010KT P6SM BKN040
     FM250300 23008KT P6SM SCT040 BKN080=

USA.gov is the U.S. government's official web portal to all federal, state and local government web resources and services.